sensor_id;sensor_type;location;lat;lon;timestamp;pressure;altitude;pressure_sealevel;temperature;humidity
35655;BME280;21773;50.010;19.972;2023-03-04T00:02:26;98831.81;;;5.02;56.87
35655;BME280;21773;50.010;19.972;2023-03-04T00:05:29;98823.63;;;4.89;57.39
35655;BME280;21773;50.010;19.972;2023-03-04T00:08:32;98828.31;;;5.01;57.11
35655;BME280;21773;50.010;19.972;2023-03-04T00:11:37;98812.94;;;4.89;57.23
35655;BME280;21773;50.010;19.972;2023-03-04T00:14:40;98808.16;;;4.84;57.54
35655;BME280;21773;50.010;19.972;2023-03-04T00:17:44;98798.13;;;4.71;57.88
35655;BME280;21773;50.010;19.972;2023-03-04T00:20:48;98799.69;;;4.80;57.72
35655;BME280;21773;50.010;19.972;2023-03-04T00:23:51;98792.31;;;4.83;57.43
35655;BME280;21773;50.010;19.972;2023-03-04T00:26:56;98792.66;;;4.94;57.33
35655;BME280;21773;50.010;19.972;2023-03-04T00:29:59;98788.97;;;4.95;57.35
35655;BME280;21773;50.010;19.972;2023-03-04T00:33:03;98789.63;;;4.97;56.99
35655;BME280;21773;50.010;19.972;2023-03-04T00:36:07;98766.59;;;4.96;57.02
35655;BME280;21773;50.010;19.972;2023-03-04T00:39:11;98753.53;;;4.87;57.19
35655;BME280;21773;50.010;19.972;2023-03-04T00:42:16;98764.03;;;4.88;57.16
35655;BME280;21773;50.010;19.972;2023-03-04T00:45:19;98751.75;;;4.94;56.89
35655;BME280;21773;50.010;19.972;2023-03-04T00:48:23;98748.06;;;4.95;56.83
35655;BME280;21773;50.010;19.972;2023-03-04T00:51:26;98742.72;;;4.95;57.42
35655;BME280;21773;50.010;19.972;2023-03-04T00:54:30;98746.13;;;5.03;56.71
35655;BME280;21773;50.010;19.972;2023-03-04T00:57:34;98732.88;;;4.95;56.67
35655;BME280;21773;50.010;19.972;2023-03-04T01:00:38;98743.47;;;5.03;56.58
35655;BME280;21773;50.010;19.972;2023-03-04T01:03:41;98726.28;;;5.12;56.39
35655;BME280;21773;50.010;19.972;2023-03-04T01:06:44;98730.56;;;5.13;56.65
35655;BME280;21773;50.010;19.972;2023-03-04T01:09:47;98712.84;;;5.06;56.62
35655;BME280;21773;50.010;19.972;2023-03-04T01:12:52;98704.44;;;5.09;56.55
35655;BME280;21773;50.010;19.972;2023-03-04T01:15:56;98700.63;;;5.18;56.26
35655;BME280;21773;50.010;19.972;2023-03-04T01:18:59;98698.66;;;5.05;56.52
35655;BME280;21773;50.010;19.972;2023-03-04T01:22:04;98698.91;;;5.10;56.52
35655;BME280;21773;50.010;19.972;2023-03-04T01:25:08;98698.06;;;5.10;56.76
35655;BME280;21773;50.010;19.972;2023-03-04T01:28:13;98686.44;;;5.17;56.37
35655;BME280;21773;50.010;19.972;2023-03-04T01:31:16;98688.16;;;5.04;56.53
35655;BME280;21773;50.010;19.972;2023-03-04T01:34:20;98670.34;;;5.11;56.75
35655;BME280;21773;50.010;19.972;2023-03-04T01:37:23;98661.13;;;4.92;57.31
35655;BME280;21773;50.010;19.972;2023-03-04T01:40:26;98659.91;;;4.95;57.10
35655;BME280;21773;50.010;19.972;2023-03-04T01:43:34;98659.97;;;5.01;56.85
35655;BME280;21773;50.010;19.972;2023-03-04T01:46:40;98643.28;;;4.93;57.32
35655;BME280;21773;50.010;19.972;2023-03-04T01:49:46;98656.56;;;5.07;56.65
35655;BME280;21773;50.010;19.972;2023-03-04T01:52:53;98651.72;;;5.17;56.63
35655;BME280;21773;50.010;19.972;2023-03-04T01:55:58;98643.03;;;5.15;56.28
35655;BME280;21773;50.010;19.972;2023-03-04T01:59:09;98653.97;;;5.20;56.23
35655;BME280;21773;50.010;19.972;2023-03-04T02:02:13;98642.47;;;5.20;56.54
35655;BME280;21773;50.010;19.972;2023-03-04T02:05:17;98645.47;;;5.10;56.43
35655;BME280;21773;50.010;19.972;2023-03-04T02:08:22;98638.03;;;5.06;56.88
35655;BME280;21773;50.010;19.972;2023-03-04T02:11:26;98637.94;;;5.20;56.24
35655;BME280;21773;50.010;19.972;2023-03-04T02:14:31;98631.97;;;5.18;56.24
35655;BME280;21773;50.010;19.972;2023-03-04T02:17:36;98621.47;;;5.17;56.24
35655;BME280;21773;50.010;19.972;2023-03-04T02:20:44;98624.84;;;5.26;55.85
35655;BME280;21773;50.010;19.972;2023-03-04T02:23:59;98634.00;;;5.16;56.10
35655;BME280;21773;50.010;19.972;2023-03-04T02:27:07;98632.84;;;5.26;56.05
35655;BME280;21773;50.010;19.972;2023-03-04T02:30:20;98621.31;;;5.25;55.76
35655;BME280;21773;50.010;19.972;2023-03-04T02:33:23;98641.06;;;5.24;55.95
35655;BME280;21773;50.010;19.972;2023-03-04T02:36:27;98631.63;;;5.28;55.82
35655;BME280;21773;50.010;19.972;2023-03-04T02:39:32;98631.63;;;5.28;55.89
35655;BME280;21773;50.010;19.972;2023-03-04T02:42:37;98622.59;;;5.29;55.82
35655;BME280;21773;50.010;19.972;2023-03-04T02:45:43;98616.13;;;5.45;55.27
35655;BME280;21773;50.010;19.972;2023-03-04T02:48:47;98615.88;;;5.40;55.36
35655;BME280;21773;50.010;19.972;2023-03-04T02:51:51;98606.03;;;5.40;55.39
35655;BME280;21773;50.010;19.972;2023-03-04T02:54:55;98605.84;;;5.42;55.11
35655;BME280;21773;50.010;19.972;2023-03-04T02:58:00;98599.53;;;5.56;54.78
35655;BME280;21773;50.010;19.972;2023-03-04T03:01:04;98593.00;;;5.65;54.44
35655;BME280;21773;50.010;19.972;2023-03-04T03:04:08;98588.56;;;5.44;55.00
35655;BME280;21773;50.010;19.972;2023-03-04T03:07:12;98582.38;;;5.44;54.92
35655;BME280;21773;50.010;19.972;2023-03-04T03:10:16;98575.13;;;5.31;55.24
35655;BME280;21773;50.010;19.972;2023-03-04T03:13:21;98567.53;;;5.35;55.14
35655;BME280;21773;50.010;19.972;2023-03-04T03:16:26;98568.53;;;5.34;55.29
35655;BME280;21773;50.010;19.972;2023-03-04T03:19:30;98579.94;;;5.42;54.69
35655;BME280;21773;50.010;19.972;2023-03-04T03:22:36;98568.94;;;5.31;55.29
35655;BME280;21773;50.010;19.972;2023-03-04T03:25:39;98573.28;;;5.38;55.18
35655;BME280;21773;50.010;19.972;2023-03-04T03:28:44;98567.38;;;5.43;54.86
35655;BME280;21773;50.010;19.972;2023-03-04T03:31:48;98559.38;;;5.49;54.34
35655;BME280;21773;50.010;19.972;2023-03-04T03:34:52;98559.44;;;5.56;54.37
35655;BME280;21773;50.010;19.972;2023-03-04T03:37:59;98563.75;;;5.57;54.40
35655;BME280;21773;50.010;19.972;2023-03-04T03:41:03;98556.94;;;5.54;54.29
35655;BME280;21773;50.010;19.972;2023-03-04T03:44:08;98558.19;;;5.58;53.85
35655;BME280;21773;50.010;19.972;2023-03-04T03:47:11;98561.53;;;5.67;54.05
35655;BME280;21773;50.010;19.972;2023-03-04T03:50:15;98564.19;;;5.67;53.83
35655;BME280;21773;50.010;19.972;2023-03-04T03:53:19;98561.75;;;5.72;53.52
35655;BME280;21773;50.010;19.972;2023-03-04T03:56:22;98559.25;;;5.64;54.00
35655;BME280;21773;50.010;19.972;2023-03-04T03:59:27;98564.81;;;5.62;53.88
35655;BME280;21773;50.010;19.972;2023-03-04T04:02:30;98559.25;;;5.64;53.59
35655;BME280;21773;50.010;19.972;2023-03-04T04:05:33;98550.47;;;5.77;53.34
35655;BME280;21773;50.010;19.972;2023-03-04T04:08:37;98557.28;;;5.79;53.15
35655;BME280;21773;50.010;19.972;2023-03-04T04:11:40;98549.22;;;5.66;53.16
35655;BME280;21773;50.010;19.972;2023-03-04T04:14:45;98544.44;;;5.61;53.24
35655;BME280;21773;50.010;19.972;2023-03-04T04:17:48;98552.84;;;5.58;53.29
35655;BME280;21773;50.010;19.972;2023-03-04T04:20:52;98547.09;;;5.55;53.33
35655;BME280;21773;50.010;19.972;2023-03-04T04:23:55;98544.59;;;5.47;53.37
35655;BME280;21773;50.010;19.972;2023-03-04T04:26:59;98531.75;;;5.36;53.88
35655;BME280;21773;50.010;19.972;2023-03-04T04:30:05;98535.50;;;5.41;53.93
35655;BME280;21773;50.010;19.972;2023-03-04T04:33:09;98530.28;;;5.33;53.97
35655;BME280;21773;50.010;19.972;2023-03-04T04:36:14;98536.69;;;5.32;54.19
35655;BME280;21773;50.010;19.972;2023-03-04T04:39:17;98537.47;;;5.33;54.47
35655;BME280;21773;50.010;19.972;2023-03-04T04:42:21;98547.88;;;5.49;54.20
35655;BME280;21773;50.010;19.972;2023-03-04T04:45:26;98545.84;;;5.51;54.06
35655;BME280;21773;50.010;19.972;2023-03-04T04:48:29;98535.56;;;5.54;53.81
35655;BME280;21773;50.010;19.972;2023-03-04T04:51:34;98526.75;;;5.67;53.52
35655;BME280;21773;50.010;19.972;2023-03-04T04:54:37;98524.47;;;5.57;53.66
35655;BME280;21773;50.010;19.972;2023-03-04T04:57:41;98522.59;;;5.58;53.72
35655;BME280;21773;50.010;19.972;2023-03-04T05:00:46;98524.63;;;5.49;53.94
35655;BME280;21773;50.010;19.972;2023-03-04T05:03:49;98524.22;;;5.52;53.77
35655;BME280;21773;50.010;19.972;2023-03-04T05:06:54;98522.38;;;5.53;53.85
35655;BME280;21773;50.010;19.972;2023-03-04T05:09:58;98516.19;;;5.52;53.85
35655;BME280;21773;50.010;19.972;2023-03-04T05:13:01;98520.56;;;5.60;53.82
35655;BME280;21773;50.010;19.972;2023-03-04T05:16:07;98515.47;;;5.65;53.80
35655;BME280;21773;50.010;19.972;2023-03-04T05:19:11;98519.41;;;5.76;53.48
35655;BME280;21773;50.010;19.972;2023-03-04T05:22:14;98520.47;;;5.81;53.08
35655;BME280;21773;50.010;19.972;2023-03-04T05:25:17;98511.41;;;5.82;53.18
35655;BME280;21773;50.010;19.972;2023-03-04T05:28:20;98515.13;;;5.81;53.10
35655;BME280;21773;50.010;19.972;2023-03-04T05:31:25;98513.06;;;5.83;53.09
35655;BME280;21773;50.010;19.972;2023-03-04T05:34:29;98488.72;;;5.65;52.91
35655;BME280;21773;50.010;19.972;2023-03-04T05:37:32;98516.75;;;5.82;52.80
35655;BME280;21773;50.010;19.972;2023-03-04T05:40:35;98503.53;;;5.67;53.02
35655;BME280;21773;50.010;19.972;2023-03-04T05:43:38;98513.19;;;5.68;53.23
35655;BME280;21773;50.010;19.972;2023-03-04T05:46:45;98506.41;;;5.66;53.42
35655;BME280;21773;50.010;19.972;2023-03-04T05:49:48;98508.63;;;5.62;53.43
35655;BME280;21773;50.010;19.972;2023-03-04T05:52:52;98499.16;;;5.53;53.52
35655;BME280;21773;50.010;19.972;2023-03-04T05:55:55;98495.34;;;5.35;54.24
35655;BME280;21773;50.010;19.972;2023-03-04T05:59:00;98500.06;;;5.26;54.63
35655;BME280;21773;50.010;19.972;2023-03-04T06:02:04;98501.09;;;5.32;54.59
35655;BME280;21773;50.010;19.972;2023-03-04T06:05:09;98482.06;;;5.07;55.19
35655;BME280;21773;50.010;19.972;2023-03-04T06:08:13;98493.59;;;5.14;55.42
35655;BME280;21773;50.010;19.972;2023-03-04T06:11:17;98501.34;;;5.02;56.09
35655;BME280;21773;50.010;19.972;2023-03-04T06:14:21;98498.56;;;5.17;55.62
35655;BME280;21773;50.010;19.972;2023-03-04T06:17:26;98501.81;;;5.12;55.41
35655;BME280;21773;50.010;19.972;2023-03-04T06:20:29;98501.88;;;5.26;55.12
35655;BME280;21773;50.010;19.972;2023-03-04T06:23:32;98496.19;;;5.35;54.90
35655;BME280;21773;50.010;19.972;2023-03-04T06:26:35;98497.44;;;5.39;54.92
35655;BME280;21773;50.010;19.972;2023-03-04T06:29:39;98496.38;;;5.34;55.05
35655;BME280;21773;50.010;19.972;2023-03-04T06:32:44;98503.34;;;5.28;55.09
35655;BME280;21773;50.010;19.972;2023-03-04T06:35:52;98511.16;;;5.30;55.26
35655;BME280;21773;50.010;19.972;2023-03-04T06:38:56;98496.06;;;5.15;55.47
35655;BME280;21773;50.010;19.972;2023-03-04T06:41:59;98516.69;;;5.21;55.48
35655;BME280;21773;50.010;19.972;2023-03-04T06:45:03;98507.94;;;5.06;55.67
35655;BME280;21773;50.010;19.972;2023-03-04T06:48:08;98505.91;;;4.80;55.85
35655;BME280;21773;50.010;19.972;2023-03-04T06:51:13;98517.50;;;4.66;56.35
35655;BME280;21773;50.010;19.972;2023-03-04T06:54:17;98511.59;;;4.50;56.48
35655;BME280;21773;50.010;19.972;2023-03-04T06:57:21;98514.59;;;4.40;56.99
35655;BME280;21773;50.010;19.972;2023-03-04T07:00:24;98499.06;;;4.44;56.72
35655;BME280;21773;50.010;19.972;2023-03-04T07:03:29;98509.50;;;4.45;56.85
35655;BME280;21773;50.010;19.972;2023-03-04T07:06:32;98503.28;;;4.59;56.62
35655;BME280;21773;50.010;19.972;2023-03-04T07:09:35;98509.97;;;4.49;56.47
35655;BME280;21773;50.010;19.972;2023-03-04T07:12:39;98511.84;;;4.55;56.53
35655;BME280;21773;50.010;19.972;2023-03-04T07:15:42;98502.06;;;4.62;55.84
35655;BME280;21773;50.010;19.972;2023-03-04T07:18:48;98517.75;;;4.71;55.50
35655;BME280;21773;50.010;19.972;2023-03-04T07:21:51;98529.59;;;4.62;55.77
35655;BME280;21773;50.010;19.972;2023-03-04T07:24:54;98523.09;;;4.71;55.58
35655;BME280;21773;50.010;19.972;2023-03-04T07:27:57;98517.50;;;4.66;55.27
35655;BME280;21773;50.010;19.972;2023-03-04T07:31:08;98517.69;;;4.65;55.47
35655;BME280;21773;50.010;19.972;2023-03-04T07:34:13;98517.50;;;4.66;55.49
35655;BME280;21773;50.010;19.972;2023-03-04T07:37:17;98534.41;;;4.73;55.13
35655;BME280;21773;50.010;19.972;2023-03-04T07:40:20;98531.78;;;4.80;54.54
35655;BME280;21773;50.010;19.972;2023-03-04T07:43:23;98542.72;;;4.85;54.78
35655;BME280;21773;50.010;19.972;2023-03-04T07:46:27;98535.53;;;4.86;54.51
35655;BME280;21773;50.010;19.972;2023-03-04T07:49:33;98538.28;;;4.99;53.99
35655;BME280;21773;50.010;19.972;2023-03-04T07:52:37;98536.25;;;5.01;53.66
35655;BME280;21773;50.010;19.972;2023-03-04T07:55:40;98545.19;;;5.14;53.23
35655;BME280;21773;50.010;19.972;2023-03-04T07:58:44;98550.25;;;5.03;53.22
35655;BME280;21773;50.010;19.972;2023-03-04T08:01:47;98551.63;;;4.92;53.48
35655;BME280;21773;50.010;19.972;2023-03-04T08:04:52;98566.97;;;4.84;54.12
35655;BME280;21773;50.010;19.972;2023-03-04T08:07:55;98573.03;;;4.99;54.16
35655;BME280;21773;50.010;19.972;2023-03-04T08:10:59;98567.63;;;5.20;53.61
35655;BME280;21773;50.010;19.972;2023-03-04T08:14:06;98567.75;;;5.05;53.99
35655;BME280;21773;50.010;19.972;2023-03-04T08:17:10;98559.44;;;5.21;53.68
35655;BME280;21773;50.010;19.972;2023-03-04T08:20:17;98571.72;;;5.16;53.81
35655;BME280;21773;50.010;19.972;2023-03-04T08:23:20;98570.84;;;5.09;54.08
35655;BME280;21773;50.010;19.972;2023-03-04T08:26:27;98583.59;;;5.13;54.18
35655;BME280;21773;50.010;19.972;2023-03-04T08:29:30;98575.81;;;5.12;54.33
35655;BME280;21773;50.010;19.972;2023-03-04T08:32:34;98561.44;;;5.13;54.04
35655;BME280;21773;50.010;19.972;2023-03-04T08:35:39;98556.56;;;4.95;54.66
35655;BME280;21773;50.010;19.972;2023-03-04T08:38:42;98570.16;;;5.00;54.27
35655;BME280;21773;50.010;19.972;2023-03-04T08:41:46;98579.31;;;5.12;54.14
35655;BME280;21773;50.010;19.972;2023-03-04T08:44:50;98570.91;;;5.15;53.96
35655;BME280;21773;50.010;19.972;2023-03-04T08:47:53;98561.09;;;5.22;53.88
35655;BME280;21773;50.010;19.972;2023-03-04T08:50:58;98575.06;;;5.24;53.75
35655;BME280;21773;50.010;19.972;2023-03-04T08:54:02;98560.97;;;5.37;53.10
35655;BME280;21773;50.010;19.972;2023-03-04T08:57:05;98573.81;;;5.20;53.39
35655;BME280;21773;50.010;19.972;2023-03-04T09:00:10;98562.84;;;5.43;53.07
35655;BME280;21773;50.010;19.972;2023-03-04T09:03:14;98569.72;;;5.59;52.46
35655;BME280;21773;50.010;19.972;2023-03-04T09:06:20;98574.91;;;5.67;51.95
35655;BME280;21773;50.010;19.972;2023-03-04T09:09:23;98568.66;;;5.88;51.41
35655;BME280;21773;50.010;19.972;2023-03-04T09:12:27;98568.69;;;5.94;51.17
35655;BME280;21773;50.010;19.972;2023-03-04T09:15:31;98573.63;;;5.91;50.82
35655;BME280;21773;50.010;19.972;2023-03-04T09:18:37;98564.13;;;5.88;50.71
35655;BME280;21773;50.010;19.972;2023-03-04T09:21:42;98569.69;;;5.87;50.48
35655;BME280;21773;50.010;19.972;2023-03-04T09:24:46;98575.59;;;5.82;50.72
35655;BME280;21773;50.010;19.972;2023-03-04T09:27:49;98568.22;;;5.84;50.89
35655;BME280;21773;50.010;19.972;2023-03-04T09:30:52;98577.94;;;5.92;50.49
35655;BME280;21773;50.010;19.972;2023-03-04T09:33:57;98575.34;;;5.71;50.96
35655;BME280;21773;50.010;19.972;2023-03-04T09:37:02;98583.38;;;5.77;50.88
35655;BME280;21773;50.010;19.972;2023-03-04T09:40:07;98574.00;;;5.53;51.15
35655;BME280;21773;50.010;19.972;2023-03-04T09:43:17;98570.97;;;5.56;51.42
35655;BME280;21773;50.010;19.972;2023-03-04T09:46:28;98565.41;;;5.58;51.59
35655;BME280;21773;50.010;19.972;2023-03-04T09:49:37;98555.00;;;5.35;51.92
35655;BME280;21773;50.010;19.972;2023-03-04T09:52:54;98564.50;;;5.44;51.75
35655;BME280;21773;50.010;19.972;2023-03-04T09:56:04;98559.69;;;5.33;51.90
35655;BME280;21773;50.010;19.972;2023-03-04T09:59:16;98544.31;;;5.35;51.94
35655;BME280;21773;50.010;19.972;2023-03-04T10:02:37;98551.56;;;5.48;51.72
35655;BME280;21773;50.010;19.972;2023-03-04T10:05:50;98549.16;;;5.59;51.69
35655;BME280;21773;50.010;19.972;2023-03-04T10:08:59;98546.81;;;5.43;51.98
35655;BME280;21773;50.010;19.972;2023-03-04T10:12:08;98539.59;;;5.44;52.06
35655;BME280;21773;50.010;19.972;2023-03-04T10:15:22;98538.41;;;5.53;51.85
35655;BME280;21773;50.010;19.972;2023-03-04T10:18:31;98536.91;;;5.72;51.05
35655;BME280;21773;50.010;19.972;2023-03-04T10:21:40;98533.81;;;5.75;50.91
35655;BME280;21773;50.010;19.972;2023-03-04T10:24:46;98535.63;;;5.67;51.28
35655;BME280;21773;50.010;19.972;2023-03-04T10:27:53;98532.75;;;5.69;50.85
35655;BME280;21773;50.010;19.972;2023-03-04T10:31:02;98525.00;;;5.40;51.46
35655;BME280;21773;50.010;19.972;2023-03-04T10:34:09;98541.50;;;5.50;51.65
35655;BME280;21773;50.010;19.972;2023-03-04T10:37:14;98533.75;;;5.61;51.30
35655;BME280;21773;50.010;19.972;2023-03-04T10:40:20;98511.03;;;5.44;51.61
35655;BME280;21773;50.010;19.972;2023-03-04T10:43:24;98524.91;;;5.61;51.36
35655;BME280;21773;50.010;19.972;2023-03-04T10:46:27;98529.94;;;5.43;51.71
35655;BME280;21773;50.010;19.972;2023-03-04T10:49:30;98522.69;;;5.71;51.29
35655;BME280;21773;50.010;19.972;2023-03-04T10:52:37;98521.03;;;5.77;51.22
35655;BME280;21773;50.010;19.972;2023-03-04T10:55:44;98520.06;;;5.84;50.93
35655;BME280;21773;50.010;19.972;2023-03-04T10:58:47;98515.41;;;5.99;50.49
35655;BME280;21773;50.010;19.972;2023-03-04T11:01:53;98511.19;;;5.84;50.66
35655;BME280;21773;50.010;19.972;2023-03-04T11:05:14;98505.50;;;5.93;50.53
35655;BME280;21773;50.010;19.972;2023-03-04T11:08:21;98493.81;;;6.01;50.33
35655;BME280;21773;50.010;19.972;2023-03-04T11:11:30;98509.88;;;6.01;50.37
35655;BME280;21773;50.010;19.972;2023-03-04T11:14:39;98506.34;;;6.07;50.70
35655;BME280;21773;50.010;19.972;2023-03-04T11:17:46;98495.47;;;6.22;50.19
35655;BME280;21773;50.010;19.972;2023-03-04T11:20:53;98495.09;;;6.25;50.23
35655;BME280;21773;50.010;19.972;2023-03-04T11:23:59;98510.06;;;6.13;50.05
35655;BME280;21773;50.010;19.972;2023-03-04T11:27:10;98490.53;;;6.12;50.38
35655;BME280;21773;50.010;19.972;2023-03-04T11:30:26;98482.28;;;6.07;50.73
35655;BME280;21773;50.010;19.972;2023-03-04T11:33:36;98490.88;;;5.89;51.32
35655;BME280;21773;50.010;19.972;2023-03-04T11:36:51;98500.56;;;5.90;50.97
35655;BME280;21773;50.010;19.972;2023-03-04T11:40:02;98486.69;;;5.74;51.29
35655;BME280;21773;50.010;19.972;2023-03-04T11:43:12;98472.03;;;5.63;51.84
35655;BME280;21773;50.010;19.972;2023-03-04T11:46:53;98457.06;;;5.75;51.40
35655;BME280;21773;50.010;19.972;2023-03-04T11:50:22;98467.00;;;5.88;50.85
35655;BME280;21773;50.010;19.972;2023-03-04T11:53:33;98465.31;;;5.80;51.51
35655;BME280;21773;50.010;19.972;2023-03-04T11:56:43;98463.13;;;5.90;51.21
35655;BME280;21773;50.010;19.972;2023-03-04T12:00:03;98455.03;;;5.84;51.31
35655;BME280;21773;50.010;19.972;2023-03-04T12:03:29;98454.66;;;5.93;51.11
35655;BME280;21773;50.010;19.972;2023-03-04T12:06:46;98446.06;;;6.04;50.98
35655;BME280;21773;50.010;19.972;2023-03-04T12:10:00;98434.13;;;6.14;50.58
35655;BME280;21773;50.010;19.972;2023-03-04T12:16:55;98441.56;;;6.44;50.11
35655;BME280;21773;50.010;19.972;2023-03-04T12:20:15;98437.84;;;6.52;50.02
35655;BME280;21773;50.010;19.972;2023-03-04T12:23:36;98443.41;;;6.44;50.00
35655;BME280;21773;50.010;19.972;2023-03-04T12:26:48;98410.66;;;6.29;50.32
35655;BME280;21773;50.010;19.972;2023-03-04T12:29:57;98436.41;;;6.43;50.47
35655;BME280;21773;50.010;19.972;2023-03-04T12:33:11;98432.09;;;6.48;50.38
35655;BME280;21773;50.010;19.972;2023-03-04T12:36:24;98430.44;;;6.54;50.11
35655;BME280;21773;50.010;19.972;2023-03-04T12:39:33;98427.97;;;6.59;50.18
35655;BME280;21773;50.010;19.972;2023-03-04T12:42:55;98433.94;;;6.55;50.44
35655;BME280;21773;50.010;19.972;2023-03-04T12:46:10;98435.16;;;6.59;50.27
35655;BME280;21773;50.010;19.972;2023-03-04T12:49:36;98440.91;;;6.75;50.06
35655;BME280;21773;50.010;19.972;2023-03-04T12:52:49;98434.28;;;6.84;49.87
35655;BME280;21773;50.010;19.972;2023-03-04T12:55:54;98443.16;;;6.91;49.65
35655;BME280;21773;50.010;19.972;2023-03-04T12:58:59;98427.84;;;7.12;49.42
35655;BME280;21773;50.010;19.972;2023-03-04T13:02:20;98435.75;;;6.93;49.63
35655;BME280;21773;50.010;19.972;2023-03-04T13:05:45;98430.59;;;6.92;49.69
35655;BME280;21773;50.010;19.972;2023-03-04T13:08:57;98418.84;;;6.86;49.88
35655;BME280;21773;50.010;19.972;2023-03-04T13:12:13;98416.56;;;6.96;49.84
35655;BME280;21773;50.010;19.972;2023-03-04T13:15:30;98407.88;;;7.01;49.43
35655;BME280;21773;50.010;19.972;2023-03-04T13:18:35;98409.97;;;6.92;49.66
35655;BME280;21773;50.010;19.972;2023-03-04T13:21:46;98401.09;;;6.99;49.53
35655;BME280;21773;50.010;19.972;2023-03-04T13:24:54;98396.97;;;7.03;49.48
35655;BME280;21773;50.010;19.972;2023-03-04T13:28:21;98401.88;;;7.12;49.31
35655;BME280;21773;50.010;19.972;2023-03-04T13:31:25;98398.63;;;7.04;49.39
35655;BME280;21773;50.010;19.972;2023-03-04T13:34:44;98389.50;;;7.18;49.10
35655;BME280;21773;50.010;19.972;2023-03-04T13:37:58;98385.72;;;7.25;48.90
35655;BME280;21773;50.010;19.972;2023-03-04T13:41:09;98390.66;;;7.28;48.79
35655;BME280;21773;50.010;19.972;2023-03-04T13:47:49;98385.72;;;7.25;48.54
35655;BME280;21773;50.010;19.972;2023-03-04T13:50:53;98385.75;;;7.19;48.89
35655;BME280;21773;50.010;19.972;2023-03-04T13:54:12;98395.88;;;7.17;48.81
35655;BME280;21773;50.010;19.972;2023-03-04T13:57:18;98388.69;;;7.04;49.04
35655;BME280;21773;50.010;19.972;2023-03-04T14:00:23;98389.50;;;7.05;49.12
35655;BME280;21773;50.010;19.972;2023-03-04T14:03:29;98378.59;;;7.06;48.99
35655;BME280;21773;50.010;19.972;2023-03-04T14:06:33;98375.59;;;7.34;48.59
35655;BME280;21773;50.010;19.972;2023-03-04T14:09:37;98378.25;;;7.34;48.46
35655;BME280;21773;50.010;19.972;2023-03-04T14:12:44;98379.66;;;7.43;48.30
35655;BME280;21773;50.010;19.972;2023-03-04T14:15:54;98371.22;;;7.46;48.19
35655;BME280;21773;50.010;19.972;2023-03-04T14:19:00;98369.00;;;7.30;48.63
35655;BME280;21773;50.010;19.972;2023-03-04T14:22:20;98356.06;;;7.20;48.68
35655;BME280;21773;50.010;19.972;2023-03-04T14:25:27;98364.75;;;7.16;49.07
35655;BME280;21773;50.010;19.972;2023-03-04T14:28:30;98377.50;;;7.27;49.20
35655;BME280;21773;50.010;19.972;2023-03-04T14:31:34;98370.31;;;7.14;49.31
35655;BME280;21773;50.010;19.972;2023-03-04T14:34:38;98375.22;;;7.24;49.24
35655;BME280;21773;50.010;19.972;2023-03-04T14:37:44;98351.53;;;7.21;49.25
35655;BME280;21773;50.010;19.972;2023-03-04T14:40:52;98366.94;;;7.32;49.06
35655;BME280;21773;50.010;19.972;2023-03-04T14:44:05;98373.69;;;7.48;49.12
35655;BME280;21773;50.010;19.972;2023-03-04T14:47:14;98376.09;;;7.56;49.17
35655;BME280;21773;50.010;19.972;2023-03-04T14:50:19;98376.94;;;7.56;48.89
35655;BME280;21773;50.010;19.972;2023-03-04T14:53:24;98367.22;;;7.55;48.91
35655;BME280;21773;50.010;19.972;2023-03-04T14:56:30;98366.03;;;7.51;49.10
35655;BME280;21773;50.010;19.972;2023-03-04T14:59:34;98357.50;;;7.61;48.63
35655;BME280;21773;50.010;19.972;2023-03-04T15:02:38;98368.44;;;7.59;48.35
35655;BME280;21773;50.010;19.972;2023-03-04T15:05:42;98370.31;;;7.59;48.57
35655;BME280;21773;50.010;19.972;2023-03-04T15:08:46;98356.72;;;7.54;48.12
35655;BME280;21773;50.010;19.972;2023-03-04T15:12:00;98357.91;;;7.58;48.11
35655;BME280;21773;50.010;19.972;2023-03-04T15:15:38;98352.16;;;7.54;48.22
35655;BME280;21773;50.010;19.972;2023-03-04T15:18:53;98341.91;;;7.45;47.93
35655;BME280;21773;50.010;19.972;2023-03-04T15:22:04;98352.13;;;7.61;47.75
35655;BME280;21773;50.010;19.972;2023-03-04T15:25:11;98348.59;;;7.67;47.47
35655;BME280;21773;50.010;19.972;2023-03-04T15:28:17;98351.31;;;7.60;47.44
35655;BME280;21773;50.010;19.972;2023-03-04T15:31:22;98350.97;;;7.44;47.75
35655;BME280;21773;50.010;19.972;2023-03-04T15:34:26;98349.31;;;7.49;47.69
35655;BME280;21773;50.010;19.972;2023-03-04T15:37:30;98340.63;;;7.54;47.05
35655;BME280;21773;50.010;19.972;2023-03-04T15:40:35;98353.91;;;7.42;47.81
35655;BME280;21773;50.010;19.972;2023-03-04T15:43:41;98355.34;;;7.38;47.10
35655;BME280;21773;50.010;19.972;2023-03-04T15:46:45;98359.44;;;7.47;47.34
35655;BME280;21773;50.010;19.972;2023-03-04T15:49:48;98347.25;;;7.51;46.69
35655;BME280;21773;50.010;19.972;2023-03-04T15:52:54;98357.50;;;7.61;46.67
35655;BME280;21773;50.010;19.972;2023-03-04T15:56:00;98363.06;;;7.59;46.62
35655;BME280;21773;50.010;19.972;2023-03-04T15:59:10;98360.41;;;7.59;46.54
35655;BME280;21773;50.010;19.972;2023-03-04T16:02:18;98346.56;;;7.62;46.15
35655;BME280;21773;50.010;19.972;2023-03-04T16:05:23;98345.38;;;7.83;45.93
35655;BME280;21773;50.010;19.972;2023-03-04T16:08:27;98353.97;;;7.92;45.75
35655;BME280;21773;50.010;19.972;2023-03-04T16:11:34;98359.34;;;7.92;45.10
35655;BME280;21773;50.010;19.972;2023-03-04T16:14:42;98361.44;;;7.90;45.60
35655;BME280;21773;50.010;19.972;2023-03-04T16:17:48;98356.66;;;7.92;45.64
35655;BME280;21773;50.010;19.972;2023-03-04T16:20:51;98329.00;;;7.66;45.79
35655;BME280;21773;50.010;19.972;2023-03-04T16:23:54;98345.94;;;7.60;45.90
35655;BME280;21773;50.010;19.972;2023-03-04T16:26:58;98342.41;;;7.66;45.76
35655;BME280;21773;50.010;19.972;2023-03-04T16:30:04;98341.19;;;7.62;45.90
35655;BME280;21773;50.010;19.972;2023-03-04T16:33:08;98352.44;;;7.77;45.82
35655;BME280;21773;50.010;19.972;2023-03-04T16:36:14;98345.91;;;7.67;45.90